Time;durP1;ratioP1;P1;durP2;ratioP2;P2;SDS_P1;SDS_P2;PMS_P1;PMS_P2;Temp;Humidity;BMP_temperature;BMP_pressure;BME280_temperature;BME280_humidity;BME280_pressure;Samples;Min_cycle;Max_cycle;Signal;HPM_P1;HPM_P2
2023/04/26 05:22:09;;;;;;;13.47;6.00;;;;;;;;;;10092948;23;20351;-93
2023/04/26 05:31:42;;;;;;;14.93;6.63;;;;;;;;;;10130278;23;20053;-93
2023/04/26 05:35:46;;;;;;;15.57;6.75;;;;;;;;;;10146094;23;20026;-94
2023/04/26 05:39:49;;;;;;;16.80;6.50;;;;;;;;;;10127910;23;20091;-94
2023/04/26 05:43:55;;;;;;;12.88;5.70;;;;;;;;;;10127912;23;20042;-93
2023/04/26 05:48:03;;;;;;;15.63;5.43;;;;;;;;;;10103227;23;20033;-93
2023/04/26 05:52:10;;;;;;;13.32;4.43;;;;;;;;;;10069018;23;20018;-93
2023/04/26 05:56:16;;;;;;;15.55;5.07;;;;;;;;;;10068511;23;20070;-93
2023/04/26 06:00:23;;;;;;;13.43;4.20;;;;;;;;;;10068314;23;20045;-93
2023/04/26 06:04:31;;;;;;;13.32;5.35;;;;;;;;;;10067508;23;20027;-90
2023/04/26 06:08:38;;;;;;;14.50;5.47;;;;;;;;;;10066179;23;20435;-93
2023/04/26 06:12:41;;;;;;;13.18;4.82;;;;;;;;;;10066723;23;20391;-92
2023/04/26 06:16:47;;;;;;;11.02;3.88;;;;;;;;;;10066227;23;20066;-92
2023/04/26 06:20:58;;;;;;;10.02;3.90;;;;;;;;;;10065484;23;20026;-92
2023/04/26 06:25:05;;;;;;;16.63;4.88;;;;;;;;;;10066476;23;20089;-93
2023/04/26 06:29:09;;;;;;;9.85;4.75;;;;;;;;;;10067557;23;20022;-93
2023/04/26 06:33:13;;;;;;;10.63;4.57;;;;;;;;;;10066768;23;20029;-94
2023/04/26 06:37:20;;;;;;;10.43;3.38;;;;;;;;;;10065862;23;20026;-92
2023/04/26 06:41:24;;;;;;;8.55;3.20;;;;;;;;;;10065664;23;20029;-92
2023/04/26 06:45:28;;;;;;;6.47;3.33;;;;;;;;;;10066394;23;20026;-93
2023/04/26 06:49:34;;;;;;;8.52;3.50;;;;;;;;;;10066176;23;20392;-93
2023/04/26 06:53:42;;;;;;;10.30;3.88;;;;;;;;;;10065397;23;20078;-92
2023/04/26 06:57:45;;;;;;;9.82;3.78;;;;;;;;;;10065038;23;20355;-92
2023/04/26 07:01:51;;;;;;;8.80;3.95;;;;;;;;;;10065193;23;20023;-93
2023/04/26 07:05:56;;;;;;;8.25;3.45;;;;;;;;;;10064295;23;20030;-92
2023/04/26 07:10:01;;;;;;;15.93;8.18;;;;;;;;;;10066098;23;20474;-92
2023/04/26 07:14:05;;;;;;;10.77;4.13;;;;;;;;;;10065725;23;20052;-92
2023/04/26 07:18:11;;;;;;;14.30;4.20;;;;;;;;;;10069764;23;20047;-91
2023/04/26 07:22:14;;;;;;;12.75;3.83;;;;;;;;;;10066111;23;20026;-92
2023/04/26 07:26:24;;;;;;;8.27;3.67;;;;;;;;;;10065626;23;20089;-91
2023/04/26 07:30:27;;;;;;;10.52;3.75;;;;;;;;;;10065152;23;20394;-91
2023/04/26 07:34:33;;;;;;;8.10;3.60;;;;;;;;;;10065258;23;20347;-92
2023/04/26 07:38:39;;;;;;;7.45;3.35;;;;;;;;;;10065652;23;20062;-91
2023/04/26 07:42:44;;;;;;;7.90;3.40;;;;;;;;;;10065642;23;20451;-91
2023/04/26 07:46:47;;;;;;;10.38;3.25;;;;;;;;;;10068338;23;20042;-91
2023/04/26 07:50:51;;;;;;;6.50;3.05;;;;;;;;;;10092292;23;20364;-92
2023/04/26 07:54:54;;;;;;;6.53;3.00;;;;;;;;;;10068594;23;20024;-91
2023/04/26 07:59:00;;;;;;;5.85;2.55;;;;;;;;;;10068954;23;20067;-92
2023/04/26 08:03:06;;;;;;;8.25;2.47;;;;;;;;;;10068151;23;20155;-91
2023/04/26 08:07:12;;;;;;;8.65;3.10;;;;;;;;;;10069251;23;20030;-90
2023/04/26 08:11:18;;;;;;;8.65;3.10;;;;;;;;;;10068931;23;20030;-92
2023/04/26 08:15:26;;;;;;;5.93;2.72;;;;;;;;;;10068691;23;20519;-92
2023/04/26 08:19:32;;;;;;;7.55;2.38;;;;;;;;;;10068262;23;20029;-91
2023/04/26 08:23:38;;;;;;;7.80;2.58;;;;;;;;;;10068078;23;20018;-91
2023/04/26 08:27:44;;;;;;;5.65;2.55;;;;;;;;;;10068788;23;20433;-91
2023/04/26 14:18:01;;;;;;;6.28;2.38;;;;;;;;;;10215669;23;20025;-91
2023/04/26 14:22:05;;;;;;;8.35;2.95;;;;;;;;;;10254944;23;20482;-93
2023/04/26 14:26:29;;;;;;;7.03;2.40;;;;;;;;;;10235849;23;20047;-91
2023/04/26 14:48:27;;;;;;;7.63;2.70;;;;;;;;;;10188356;23;20025;-92
2023/04/26 14:52:30;;;;;;;7.82;2.65;;;;;;;;;;10235168;23;20014;-91
2023/04/26 14:56:42;;;;;;;11.48;3.53;;;;;;;;;;10220118;23;20026;-93
2023/04/26 15:00:48;;;;;;;6.75;2.90;;;;;;;;;;10224826;23;20041;-94
2023/04/26 15:16:18;;;;;;;9.35;3.47;;;;;;;;;;10190745;23;20453;-90
2023/04/26 18:36:19;;;;;;;27.90;9.55;;;;;;;;;;10181366;23;20421;-91
2023/04/26 20:07:49;;;;;;;16.08;8.38;;;;;;;;;;10219884;23;20060;-92
2023/04/26 20:17:12;;;;;;;24.33;10.45;;;;;;;;;;10197408;23;20025;-94
